Flight Track Log - Related Links

Times and Time Zones

All times are in EDT time to prevent confusion due to time zone crossing. See the AWE1056 flight status page for this flight to view local times or setup timezone preferences in your user account.

Time Position Orientation Groundspeed Altitude Reporting Facility
EDT Latitude Longitude Course Direction KTS MPH feet Rate Location/Type
Sun 04:40:22 PM 25.0714 -77.5425 309° West 352 405 3,600  Level Miami Center
Sun 04:41:00 PM 25.2115 -77.7045 308° West  Level FlightAware
Sun 04:41:22 PM 25.0814 -77.6161 279° West 284 327 5,200  Level Miami Center
Sun 04:42:00 PM 25.2810 -77.8025 310° West  Level FlightAware
Sun 04:42:22 PM 25.1272 -77.6667 315° West 274 315 7,800  Level Miami Center
Sun 04:43:00 PM 25.3530 -77.8984 310° West  Level FlightAware
Sun 04:43:22 PM 25.2044 -77.7017 338° Northwest 253 291 10,600  Level Miami Center
Sun 04:44:00 PM 25.4237 -77.9954 309° West  Level FlightAware
Sun 04:44:22 PM 25.2686 -77.7689 317° Northwest 288 331 11,700  Level Miami Center
Sun 04:45:00 PM 25.4940 -78.0928 309° West  Level FlightAware
Sun 04:45:22 PM 25.3308 -77.8544 309° West 325 374 13,800  Level Miami Center
Sun 04:46:22 PM 25.3950 -77.9469 308° West 355 409 16,000 2,300 Climbing Miami Center
Sun 04:47:22 PM 25.4611 -78.0372 309° West 377 434 18,400 2,200 Climbing Miami Center
Sun 04:48:22 PM 25.5294 -78.1322 309° West 382 440 20,400 1,900 Climbing Miami Center
Sun 04:49:22 PM 25.5994 -78.2300 308° West 389 448 22,200 1,650 Climbing Miami Center
Sun 04:50:22 PM 25.6717 -78.3322 308° West 406 467 23,700 1,400 Climbing Miami Center
Sun 04:51:22 PM 25.7311 -78.4389 302° West 412 474 25,000 1,050 Climbing Miami Center
Sun 04:52:22 PM 25.7317 -78.5706 270° West 402 463 25,800 1,400 Climbing Miami Center
Sun 04:53:22 PM 25.7408 -78.6953 275° West 407 468 27,800 2,100 Climbing Miami Center
Sun 04:54:22 PM 25.7433 -78.8153 271° West 407 468 30,000 1,750 Climbing Miami Center
Sun 04:55:22 PM 25.7542 -78.9306 276° West 400 460 31,300 1,000 Climbing Miami Center
Sun 04:56:22 PM 25.7547 -79.0436 270° West 387 445 32,000 350 Climbing Miami Center
Sun 04:57:22 PM 25.7592 -79.1614 272° West 382 440 32,000  Level Miami Center
Sun 04:58:22 PM 25.7592 -79.2883 270° West 382 440 32,000  Level Miami Center
Sun 04:59:22 PM 25.7636 -79.4083 272° West 382 440 32,000  Level Miami Center
Sun 05:00:22 PM 25.7992 -79.5175 290° West 382 440 32,000  Level Miami Center
Sun 05:01:22 PM 25.8456 -79.6156 298° West 387 445 32,000  Level Miami Center
Sun 05:03:00 PM 25.9197 -79.8023 293° West  Level FlightAware
Sun 05:03:22 PM 25.9353 -79.8347 293° West 393 452 32,000  Level Miami Center
Sun 05:04:22 PM 25.9789 -79.9422 294° West 393 452 32,000  Level Miami Center
Sun 05:05:22 PM 26.0247 -80.0475 296° West 388 447 32,000  Level Miami Center
Sun 05:06:22 PM 26.0725 -80.1575 296° West 382 440 32,000  Level Miami Center
Sun 05:07:22 PM 26.1753 -80.2206 331° Northwest 383 441 32,000  Level Miami Center
Sun 05:08:22 PM 26.2847 -80.2744 336° Northwest 412 474 32,000  Level Miami Center
Sun 05:09:22 PM 26.4025 -80.3336 336° Northwest 424 488 32,000 350 Level Miami Center
Sun 05:10:22 PM 26.5119 -80.3878 336° Northwest 424 488 32,700 500 Climbing Miami Center
Sun 05:11:22 PM 26.6214 -80.4400 337° Northwest 424 488 33,000 150 Climbing Miami Center
Sun 05:12:22 PM 26.7328 -80.4897 338° Northwest 430 495 33,000  Level Miami Center
Sun 05:13:22 PM 26.8422 -80.5444 336° Northwest 435 501 33,000  Level Miami Center
Sun 05:14:22 PM 26.9558 -80.5947 338° Northwest 430 495 33,000  Level Miami Center
Sun 05:15:22 PM 27.0650 -80.6447 338° Northwest 430 495 33,000  Level Miami Center
Sun 05:16:22 PM 27.1764 -80.6975 337° Northwest 430 495 33,000  Level Miami Center
Sun 05:17:22 PM 27.2858 -80.7456 339° North 430 495 33,000  Level Miami Center
Sun 05:18:22 PM 27.3867 -80.7956 336° Northwest 422 486 33,000  Level Miami Center
Sun 05:19:22 PM 27.5003 -80.8439 339° North 422 486 33,000  Level Miami Center
Sun 05:20:22 PM 27.6094 -80.8947 338° Northwest 422 486 33,000  Level Miami Center
Sun 05:21:22 PM 27.7206 -80.9478 337° Northwest 422 486 33,000  Level Miami Center
Sun 05:22:22 PM 27.8297 -80.9986 338° Northwest 422 486 33,000  Level Miami Center
Sun 05:23:22 PM 27.9389 -81.0497 338° Northwest 422 486 33,000  Level Miami Center
Sun 05:24:22 PM 28.0461 -81.1006 337° Northwest 422 486 33,000  Level Miami Center
Sun 05:26:03 PM 28.2444 -81.1514 347° North 432 497 33,000  Level Jacksonville Center
Sun 05:27:03 PM 28.3658 -81.1728 351° North 437 503 33,000  Level Jacksonville Center
Sun 05:28:03 PM 28.4872 -81.1944 351° North 437 503 33,000  Level Jacksonville Center
Sun 05:29:03 PM 28.6064 -81.2161 351° North 431 496 33,000  Level Jacksonville Center
Sun 05:30:03 PM 28.7256 -81.2353 352° North 431 496 33,000  Level Jacksonville Center
Sun 05:32:00 PM 28.9419 -81.2600 354° North  Level FlightAware
Sun 05:33:03 PM 29.0875 -81.2958 354° North 425 489 33,000  Level Jacksonville Center
Sun 05:34:03 PM 29.2067 -81.3153 352° North 430 495 33,000  Level Jacksonville Center
Sun 05:35:03 PM 29.3281 -81.3347 352° North 430 495 33,000  Level Jacksonville Center
Sun 05:36:03 PM 29.4533 -81.3425 357° North 435 501 33,000  Level Jacksonville Center
Sun 05:37:03 PM 29.5744 -81.3500 357° North 435 501 33,000  Level Jacksonville Center
Sun 05:38:03 PM 29.6997 -81.3553 358° North 441 507 33,000  Level Jacksonville Center
Sun 05:39:03 PM 29.8272 -81.3603 358° North 441 507 33,000  Level Jacksonville Center
Sun 05:40:03 PM 29.9506 -81.3681 357° North 441 507 33,000  Level Jacksonville Center
Sun 05:41:03 PM 30.0758 -81.3731 358° North 446 513 33,000  Level Jacksonville Center
Sun 05:42:03 PM 30.2011 -81.3808 357° North 446 513 33,000  Level Jacksonville Center
Sun 05:43:03 PM 30.3286 -81.3883 357° North 446 513 33,000  Level Jacksonville Center
Sun 05:44:03 PM 30.4539 -81.3936 358° North 446 513 33,000  Level Jacksonville Center
Sun 05:45:03 PM 30.5836 -81.4014 357° North 451 519 33,000  Level Jacksonville Center
Sun 05:46:03 PM 30.7089 -81.4067 358° North 451 519 33,000  Level Jacksonville Center
Sun 05:47:03 PM 30.8364 -81.4142 357° North 451 519 33,000  Level Jacksonville Center
Sun 05:48:03 PM 30.9678 -81.4219 357° North 462 532 33,000  Level Jacksonville Center
Sun 05:49:03 PM 31.0975 -81.4319 356° North 462 532 33,000  Level Jacksonville Center
Sun 05:50:03 PM 31.2250 -81.4397 357° North 455 524 33,000  Level Jacksonville Center
Sun 05:51:03 PM 31.3561 -81.4133 10° North 469 540 33,000  Level Jacksonville Center
Sun 05:52:03 PM 31.4706 -81.3800 14° North 469 540 33,000  Level Jacksonville Center
Sun 05:53:03 PM 31.6122 -81.3433 12° North 474 545 33,000  Level Jacksonville Center
Sun 05:54:03 PM 31.7286 -81.3122 13° North 467 537 33,000  Level Jacksonville Center
Sun 05:55:03 PM 31.8722 -81.2731 13° North 472 543 33,000  Level Jacksonville Center
Sun 05:56:03 PM 31.9889 -81.2442 12° North 472 543 33,000  Level Jacksonville Center
Sun 05:58:03 PM 32.2381 -81.1414 19° North 472 543 33,000  Level Jacksonville Center
Sun 06:00:00 PM 32.4292 -81.0101 30° Northeast  Level FlightAware
Sun 06:02:03 PM 32.7111 -80.8236 30° Northeast 477 549 33,000  Level Jacksonville Center
Sun 06:03:03 PM 32.8289 -80.7467 29° Northeast 477 549 33,000  Level Jacksonville Center
Sun 06:04:03 PM 32.9444 -80.6672 30° Northeast 477 549 33,000  Level Jacksonville Center
Sun 06:05:03 PM 33.0642 -80.5875 29° Northeast 477 549 33,000  Level Jacksonville Center
Sun 06:06:03 PM 33.1817 -80.5100 29° Northeast 482 555 33,000  Level Jacksonville Center
Sun 06:07:00 PM 33.1149 -80.5346 30° Northeast  Level FlightAware
Sun 06:07:03 PM 33.3011 -80.4272 30° Northeast 482 555 33,000  Level Jacksonville Center
Sun 06:08:03 PM 33.4183 -80.3494 29° Northeast 482 555 32,100 -2,250 Descending Jacksonville Center
Sun 06:09:03 PM 33.5400 -80.2661 30° Northeast 482 555 28,500 -3,600 Descending Jacksonville Center
Sun 06:10:03 PM 33.6592 -80.1853 29° Northeast 482 555 24,900 -2,650 Descending Jacksonville Center
Sun 06:11:03 PM 33.7789 -80.1167 25° Northeast 482 555 23,200 -1,050 Descending Jacksonville Center
Sun 06:12:03 PM 33.9003 -80.1378 352° North 434 499 22,800 -100 Descending Jacksonville Center
Sun 06:13:03 PM 34.0239 -80.1689 348° North 434 499 23,000 -750 Climbing Jacksonville Center
Sun 06:14:03 PM 34.1414 -80.1978 348° North 434 499 21,300 -2,000 Descending Jacksonville Center
Sun 06:15:03 PM 34.2547 -80.2269 348° North 429 494 19,000 -2,400 Descending Jacksonville Center
Sun 06:16:03 PM 34.3658 -80.2514 350° North 412 474 16,500 -2,400 Descending Jacksonville Center
Sun 06:17:03 PM 34.4708 -80.2858 345° North 399 459 14,200 -2,200 Descending Jacksonville Center
Sun 06:18:03 PM 34.5758 -80.3131 348° North 393 452 12,100 -1,627 Descending Jacksonville Center
Sun 06:19:01 PM 34.6797 -80.3358 350° North 373 429 11,000 -508 Descending Atlanta Center
Sun 06:20:13 PM 34.7636 -80.4206 320° Northwest 311 358 11,000 -694 Level Atlanta Center
Sun 06:21:02 PM 34.7950 -80.5003 296° West 306 352 9,600 -1,582 Descending Atlanta Center
Sun 06:22:03 PM 34.8250 -80.5975 291° West 312 359 8,100 -1,688 Descending Atlanta Center
Sun 06:23:10 PM 34.8550 -80.7003 290° West 300 345 6,000 -1,623 Descending Atlanta Center
Sun 06:24:05 PM 34.8700 -80.7958 281° West 310 357 4,800 -879 Descending Atlanta Center
Sun 06:25:06 PM 34.8597 -80.8847 262° West 244 281 4,300 -375 Descending Atlanta Center
Sun 06:26:13 PM 34.9047 -80.9236 325° Northwest 196 226 4,000 -142 Descending Atlanta Center
Sun 06:27:13 PM 34.9586 -80.9164 North 194 223 4,000  Level Atlanta Center
Sun 06:28:08 PM 35.0153 -80.9219 355° North 214 246 4,000 -410 Level Atlanta Center
Sun 06:29:10 PM 35.0736 -80.9247 358° North 214 246 3,200 -885 Descending Atlanta Center
Sun 06:30:10 PM 35.1303 -80.9303 355° North 202 232 2,200 -893 Descending Atlanta Center
Sun 06:31:11 PM 35.1700 -80.9339 356° North 139 160 1,400 -787 Descending Atlanta Center

Login

Don't have an account? Register now (free) for customized features, flight alerts, and more!